Time,TemperatureF,DewpointF,PressureIn,WindDirection,WindDirectionDegrees,WindSpeedMPH,WindSpeedGustMPH,Humidity,HourlyPrecipIn,Conditions,Clouds,dailyrainin,SoftwareType,DateUTC
2013-02-23 00:02:00,43.4,38.0,30.15,WSW,253,16.0,16.0,81,0.00,,,0.67,Wunderground v.1.15,2013-02-23 08:02:00,
2013-02-23 00:07:00,43.4,37.0,30.15,West,281,17.0,22.0,78,0.00,,,0.67,Wunderground v.1.15,2013-02-23 08:07:00,
2013-02-23 00:16:00,43.6,37.8,30.15,SW,234,18.0,18.0,80,0.00,,,0.67,Wunderground v.1.15,2013-02-23 08:16:00,
2013-02-23 00:27:00,41.5,35.8,30.17,NNW,332,18.0,35.0,80,0.00,,,0.67,Wunderground v.1.15,2013-02-23 08:27:00,
2013-02-23 00:36:00,39.6,35.8,30.17,NNW,346,9.0,17.0,86,0.00,,,0.67,Wunderground v.1.15,2013-02-23 08:36:00,
2013-02-23 00:42:00,39.6,36.0,30.17,WNW,287,6.0,6.0,87,0.00,,,0.68,Wunderground v.1.15,2013-02-23 08:42:00,
2013-02-23 00:52:00,40.0,36.2,30.17,NW,306,8.0,16.0,86,0.00,,,0.68,Wunderground v.1.15,2013-02-23 08:52:00,
2013-02-23 01:02:00,39.4,35.9,30.18,WNW,291,11.0,11.0,87,0.23,,,0.71,Wunderground v.1.15,2013-02-23 09:02:00,
2013-02-23 01:12:00,39.3,36.6,30.17,NW,326,5.0,5.0,90,0.06,,,0.72,Wunderground v.1.15,2013-02-23 09:12:00,
2013-02-23 01:22:00,39.8,37.1,30.17,WNW,297,5.0,13.0,90,0.06,,,0.72,Wunderground v.1.15,2013-02-23 09:22:00,
2013-02-23 01:27:00,40.5,38.1,30.17,WNW,291,7.0,13.0,91,0.04,,,0.72,Wunderground v.1.15,2013-02-23 09:27:00,
2013-02-23 01:37:00,41.8,39.4,30.17,West,271,11.0,17.0,91,0.00,,,0.72,Wunderground v.1.15,2013-02-23 09:37:00,
2013-02-23 01:47:00,42.5,38.9,30.17,West,276,14.0,19.0,87,0.00,,,0.72,Wunderground v.1.15,2013-02-23 09:47:00,
2013-02-23 01:52:00,42.8,38.6,30.17,WSW,258,15.0,15.0,85,0.00,,,0.72,Wunderground v.1.15,2013-02-23 09:52:00,
2013-02-23 02:01:00,43.0,38.2,30.18,West,281,15.0,15.0,83,0.00,,,0.72,Wunderground v.1.15,2013-02-23 10:01:00,
2013-02-23 02:07:00,43.1,38.0,30.18,West,279,15.0,22.0,82,0.00,,,0.72,Wunderground v.1.15,2013-02-23 10:07:00,
2013-02-23 02:16:00,43.3,37.9,30.18,West,278,16.0,24.0,81,0.00,,,0.72,Wunderground v.1.15,2013-02-23 10:16:00,
2013-02-23 02:22:00,43.3,38.2,30.18,West,271,16.0,23.0,82,0.00,,,0.72,Wunderground v.1.15,2013-02-23 10:22:00,
2013-02-23 02:31:00,43.3,37.5,30.19,West,279,16.0,23.0,80,0.00,,,0.72,Wunderground v.1.15,2013-02-23 10:31:00,
2013-02-23 02:42:00,43.6,38.2,30.19,West,267,14.0,14.0,81,0.00,,,0.72,Wunderground v.1.15,2013-02-23 10:42:00,
2013-02-23 02:52:00,43.1,38.0,30.19,WNW,288,17.0,17.0,82,0.00,,,0.72,Wunderground v.1.15,2013-02-23 10:52:00,
2013-02-23 03:01:00,43.1,37.7,30.19,West,278,15.0,21.0,81,0.00,,,0.72,Wunderground v.1.15,2013-02-23 11:01:00,
2013-02-23 03:12:00,43.6,37.5,30.19,WNW,282,16.0,16.0,79,0.00,,,0.72,Wunderground v.1.15,2013-02-23 11:12:00,
2013-02-23 03:21:00,43.2,38.4,30.20,West,268,15.0,15.0,83,0.00,,,0.72,Wunderground v.1.15,2013-02-23 11:21:00,
2013-02-23 03:32:00,43.0,38.2,30.19,WSW,254,13.0,13.0,83,0.00,,,0.72,Wunderground v.1.15,2013-02-23 11:32:00,
2013-02-23 03:41:00,43.2,38.7,30.19,West,265,13.0,17.0,84,0.00,,,0.72,Wunderground v.1.15,2013-02-23 11:41:00,
2013-02-23 03:52:00,43.5,39.0,30.19,WSW,258,13.0,18.0,84,0.00,,,0.72,Wunderground v.1.15,2013-02-23 11:52:00,
2013-02-23 04:02:00,44.0,39.2,30.20,West,272,14.0,19.0,83,0.00,,,0.72,Wunderground v.1.15,2013-02-23 12:02:00,
2013-02-23 04:12:00,44.3,38.5,30.20,West,280,18.0,18.0,80,0.00,,,0.72,Wunderground v.1.15,2013-02-23 12:12:00,
2013-02-23 04:21:00,43.8,38.3,30.21,West,277,18.0,18.0,81,0.00,,,0.72,Wunderground v.1.15,2013-02-23 12:21:00,
2013-02-23 04:27:00,43.6,39.1,30.21,West,279,17.0,27.0,84,0.00,,,0.72,Wunderground v.1.15,2013-02-23 12:27:00,
2013-02-23 04:37:00,42.8,38.6,30.21,West,265,19.0,29.0,85,0.00,,,0.72,Wunderground v.1.15,2013-02-23 12:37:00,
2013-02-23 04:47:00,42.7,38.2,30.22,WNW,283,16.0,23.0,84,0.00,,,0.72,Wunderground v.1.15,2013-02-23 12:47:00,
2013-02-23 04:57:00,42.9,38.1,30.22,WNW,292,14.0,22.0,83,0.00,,,0.72,Wunderground v.1.15,2013-02-23 12:57:00,
2013-02-23 05:06:00,43.5,39.0,30.22,WNW,301,14.0,15.0,84,0.00,,,0.72,Wunderground v.1.15,2013-02-23 13:06:00,
2013-02-23 05:17:00,43.7,38.6,30.23,WNW,286,16.0,24.0,82,0.00,,,0.72,Wunderground v.1.15,2013-02-23 13:17:00,
2013-02-23 05:26:00,44.0,39.2,30.23,West,264,16.0,25.0,83,0.00,,,0.72,Wunderground v.1.15,2013-02-23 13:26:00,
2013-02-23 05:37:00,44.0,38.5,30.24,North,5,14.0,26.0,81,0.00,,,0.72,Wunderground v.1.15,2013-02-23 13:37:00,
2013-02-23 05:47:00,43.0,37.6,30.25,NE,53,3.0,8.0,81,0.00,,,0.72,Wunderground v.1.15,2013-02-23 13:47:00,
2013-02-23 05:57:00,42.5,37.7,30.25,NW,311,2.0,7.0,83,0.00,,,0.72,Wunderground v.1.15,2013-02-23 13:57:00,
2013-02-23 06:06:00,42.0,37.8,30.25,WNW,283,5.0,10.0,85,0.00,,,0.73,Wunderground v.1.15,2013-02-23 14:06:00,
2013-02-23 06:16:00,41.4,37.5,30.26,NNW,329,9.0,22.0,86,0.04,,,0.74,Wunderground v.1.15,2013-02-23 14:16:00,
2013-02-23 06:21:00,41.2,37.6,30.26,North,5,6.0,6.0,87,0.04,,,0.74,Wunderground v.1.15,2013-02-23 14:21:00,
2013-02-23 06:32:00,41.0,37.4,30.26,North,360,5.0,5.0,87,0.00,,,0.74,Wunderground v.1.15,2013-02-23 14:32:00,
2013-02-23 06:41:00,41.9,38.9,30.26,WNW,286,5.0,12.0,89,0.00,,,0.74,Wunderground v.1.15,2013-02-23 14:41:00,
2013-02-23 06:47:00,42.4,38.8,30.26,West,261,8.0,14.0,87,0.00,,,0.74,Wunderground v.1.15,2013-02-23 14:47:00,
2013-02-23 06:57:00,43.2,39.3,30.27,NNW,327,8.0,9.0,86,0.00,,,0.74,Wunderground v.1.15,2013-02-23 14:57:00,
2013-02-23 07:07:00,43.1,38.9,30.27,WNW,295,13.0,13.0,85,0.00,,,0.75,Wunderground v.1.15,2013-02-23 15:07:00,
2013-02-23 07:17:00,42.2,38.0,30.28,NW,325,6.0,13.0,85,0.00,,,0.75,Wunderground v.1.15,2013-02-23 15:17:00,
2013-02-23 07:26:00,41.1,37.2,30.29,North,360,7.0,15.0,86,0.00,,,0.75,Wunderground v.1.15,2013-02-23 15:26:00,
2013-02-23 07:32:00,40.9,37.0,30.29,NNE,17,8.0,8.0,86,0.00,,,0.75,Wunderground v.1.15,2013-02-23 15:32:00,
2013-02-23 07:42:00,41.0,38.6,30.29,WNW,297,5.0,7.0,91,0.00,,,0.00,Wunderground v.1.15,2013-02-23 15:42:00,
2013-02-23 07:47:00,41.5,37.9,30.29,WNW,286,4.0,7.0,87,0.00,,,0.00,Wunderground v.1.15,2013-02-23 15:47:00,
2013-02-23 07:56:00,41.6,38.0,30.30,NNE,16,2.0,5.0,87,0.00,,,0.00,Wunderground v.1.15,2013-02-23 15:56:00,
2013-02-23 08:02:00,41.5,37.9,30.30,NNE,22,2.0,6.0,87,0.00,,,0.00,Wunderground v.1.15,2013-02-23 16:02:00,
2013-02-23 08:11:00,41.7,39.5,30.30,NNE,24,2.0,2.0,92,0.00,,,0.00,Wunderground v.1.15,2013-02-23 16:11:00,
2013-02-23 08:22:00,41.7,38.4,30.31,West,279,2.0,12.0,88,0.00,,,0.00,Wunderground v.1.15,2013-02-23 16:22:00,
2013-02-23 08:32:00,43.0,39.7,30.32,West,278,6.0,12.0,88,0.00,,,0.00,Wunderground v.1.15,2013-02-23 16:32:00,
2013-02-23 08:41:00,43.8,39.6,30.32,West,278,9.0,9.0,85,0.00,,,0.00,Wunderground v.1.15,2013-02-23 16:41:00,
2013-02-23 08:52:00,44.2,40.0,30.32,WSW,258,8.0,14.0,85,0.00,,,0.00,Wunderground v.1.15,2013-02-23 16:52:00,
2013-02-23 09:02:00,42.2,38.3,30.34,WNW,300,9.0,9.0,86,0.00,,,0.01,Wunderground v.1.15,2013-02-23 17:02:00,
2013-02-23 09:11:00,40.4,36.5,30.34,NE,35,10.0,22.0,86,0.11,,,0.03,Wunderground v.1.15,2013-02-23 17:11:00,
2013-02-23 09:17:00,40.3,36.4,30.34,North,360,8.0,22.0,86,0.07,,,0.03,Wunderground v.1.15,2013-02-23 17:17:00,
2013-02-23 09:27:00,40.8,36.6,30.34,NE,34,4.0,8.0,85,0.00,,,0.03,Wunderground v.1.15,2013-02-23 17:27:00,
2013-02-23 09:36:00,41.5,37.6,30.35,NNE,19,2.0,4.0,86,0.00,,,0.03,Wunderground v.1.15,2013-02-23 17:36:00,
2013-02-23 09:42:00,42.1,38.5,30.35,North,360,2.0,5.0,87,0.00,,,0.03,Wunderground v.1.15,2013-02-23 17:42:00,
2013-02-23 09:51:00,43.4,39.5,30.35,NW,307,4.0,17.0,86,0.00,,,0.03,Wunderground v.1.15,2013-02-23 17:51:00,
2013-02-23 09:57:00,43.3,39.4,30.35,West,273,11.0,22.0,86,0.00,,,0.03,Wunderground v.1.15,2013-02-23 17:57:00,
2013-02-23 10:02:00,43.4,39.8,30.36,West,279,14.0,14.0,87,0.00,,,0.03,Wunderground v.1.15,2013-02-23 18:02:00,
2013-02-23 10:12:00,43.1,39.2,30.36,WNW,300,10.0,10.0,86,0.00,,,0.03,Wunderground v.1.15,2013-02-23 18:12:00,
2013-02-23 10:21:00,43.4,39.2,30.37,WNW,294,9.0,9.0,85,0.00,,,0.03,Wunderground v.1.15,2013-02-23 18:21:00,
2013-02-23 10:31:00,43.8,39.3,30.37,WNW,288,8.0,13.0,84,0.00,,,0.03,Wunderground v.1.15,2013-02-23 18:31:00,
2013-02-23 10:42:00,44.2,39.4,30.37,NNE,26,7.0,7.0,83,0.00,,,0.03,Wunderground v.1.15,2013-02-23 18:42:00,
2013-02-23 10:51:00,43.8,38.7,30.38,NNW,336,8.0,8.0,82,0.00,,,0.03,Wunderground v.1.15,2013-02-23 18:51:00,
2013-02-23 11:02:00,44.3,38.8,30.38,West,279,7.0,18.0,81,0.00,,,0.03,Wunderground v.1.15,2013-02-23 19:02:00,
2013-02-23 11:11:00,44.2,38.1,30.38,WNW,288,11.0,11.0,79,0.00,,,0.03,Wunderground v.1.15,2013-02-23 19:11:00,
2013-02-23 11:17:00,44.5,38.1,30.39,West,270,9.0,14.0,78,0.00,,,0.03,Wunderground v.1.15,2013-02-23 19:17:00,
2013-02-23 11:26:00,45.1,39.0,30.39,WNW,286,7.0,14.0,79,0.00,,,0.03,Wunderground v.1.15,2013-02-23 19:26:00,
2013-02-23 11:36:00,45.6,39.5,30.39,NW,317,4.0,9.0,79,0.00,,,0.03,Wunderground v.1.15,2013-02-23 19:36:00,
2013-02-23 11:42:00,45.8,39.7,30.39,NW,324,4.0,8.0,79,0.00,,,0.03,Wunderground v.1.15,2013-02-23 19:42:00,
2013-02-23 11:47:00,45.9,39.8,30.40,WNW,299,5.0,13.0,79,0.00,,,0.03,Wunderground v.1.15,2013-02-23 19:47:00,
2013-02-23 11:57:00,45.6,39.1,30.40,WNW,284,7.0,12.0,78,0.00,,,0.03,Wunderground v.1.15,2013-02-23 19:57:00,
2013-02-23 12:06:00,45.9,39.4,30.40,West,265,7.0,13.0,78,0.00,,,0.03,Wunderground v.1.15,2013-02-23 20:06:00,
2013-02-23 12:17:00,46.1,39.6,30.40,NE,37,5.0,12.0,78,0.00,,,0.03,Wunderground v.1.15,2013-02-23 20:17:00,
2013-02-23 12:26:00,45.0,37.9,30.40,NNE,29,6.0,16.0,76,0.00,,,0.03,Wunderground v.1.15,2013-02-23 20:26:00,
2013-02-23 12:37:00,45.6,39.5,30.40,NNE,13,5.0,7.0,79,0.00,,,0.03,Wunderground v.1.15,2013-02-23 20:37:00,
2013-02-23 12:47:00,46.4,39.6,30.39,North,355,4.0,8.0,77,0.00,,,0.03,Wunderground v.1.15,2013-02-23 20:47:00,
2013-02-23 12:56:00,46.3,39.8,30.39,WNW,282,6.0,13.0,78,0.00,,,0.03,Wunderground v.1.15,2013-02-23 20:56:00,
2013-02-23 13:02:00,46.4,38.9,30.39,WNW,288,9.0,9.0,75,0.00,,,0.03,Wunderground v.1.15,2013-02-23 21:02:00,
2013-02-23 13:12:00,46.7,38.5,30.39,West,265,11.0,20.0,73,0.00,,,0.03,Wunderground v.1.15,2013-02-23 21:12:00,
2013-02-23 13:17:00,46.7,39.2,30.39,North,355,12.0,21.0,75,0.00,,,0.03,Wunderground v.1.15,2013-02-23 21:17:00,
2013-02-23 13:26:00,46.9,40.1,30.40,West,267,4.0,17.0,77,0.00,,,0.03,Wunderground v.1.15,2013-02-23 21:26:00,
2013-02-23 13:32:00,46.8,40.0,30.39,WNW,300,5.0,5.0,77,0.00,,,0.03,Wunderground v.1.15,2013-02-23 21:32:00,
2013-02-23 13:42:00,46.6,39.4,30.40,North,351,5.0,5.0,76,0.00,,,0.03,Wunderground v.1.15,2013-02-23 21:42:00,
2013-02-23 13:52:00,46.6,38.8,30.39,North,5,4.0,13.0,74,0.00,,,0.03,Wunderground v.1.15,2013-02-23 21:52:00,
2013-02-23 14:02:00,46.4,38.9,30.40,WNW,290,5.0,11.0,75,0.00,,,0.03,Wunderground v.1.15,2013-02-23 22:02:00,
2013-02-23 14:12:00,46.0,38.9,30.40,NW,322,4.0,9.0,76,0.00,,,0.03,Wunderground v.1.15,2013-02-23 22:12:00,
2013-02-23 14:22:00,46.4,38.9,30.40,NW,306,5.0,11.0,75,0.00,,,0.03,Wunderground v.1.15,2013-02-23 22:22:00,
2013-02-23 14:31:00,46.5,39.3,30.41,NW,309,5.0,5.0,76,0.00,,,0.03,Wunderground v.1.15,2013-02-23 22:31:00,
2013-02-23 14:36:00,46.4,38.9,30.41,WNW,296,6.0,9.0,75,0.00,,,0.03,Wunderground v.1.15,2013-02-23 22:36:00,
2013-02-23 14:42:00,46.2,39.4,30.41,NW,319,7.0,12.0,77,0.00,,,0.03,Wunderground v.1.15,2013-02-23 22:42:00,
2013-02-23 14:52:00,46.9,39.4,30.41,NNW,336,6.0,6.0,75,0.00,,,0.03,Wunderground v.1.15,2013-02-23 22:52:00,
2013-02-23 15:01:00,47.4,38.8,30.41,NW,309,5.0,12.0,72,0.00,,,0.03,Wunderground v.1.15,2013-02-23 23:01:00,
2013-02-23 15:07:00,47.8,38.8,30.41,WNW,296,5.0,12.0,71,0.00,,,0.03,Wunderground v.1.15,2013-02-23 23:07:00,
2013-02-23 15:17:00,46.5,38.0,30.41,NW,307,11.0,20.0,72,0.00,,,0.03,Wunderground v.1.15,2013-02-23 23:17:00,
2013-02-23 15:26:00,46.7,38.9,30.41,WNW,289,9.0,17.0,74,0.00,,,0.03,Wunderground v.1.15,2013-02-23 23:26:00,
2013-02-23 15:32:00,46.2,38.4,30.41,West,271,10.0,15.0,74,0.00,,,0.03,Wunderground v.1.15,2013-02-23 23:32:00,
2013-02-23 15:42:00,46.3,39.8,30.42,WNW,288,9.0,14.0,78,0.00,,,0.03,Wunderground v.1.15,2013-02-23 23:42:00,
2013-02-23 15:46:00,46.5,40.0,30.42,WNW,294,10.0,16.0,78,0.00,,,0.03,Wunderground v.1.15,2013-02-23 23:46:00,
2013-02-23 15:56:00,46.4,39.6,30.42,West,281,10.0,15.0,77,0.00,,,0.03,Wunderground v.1.15,2013-02-23 23:56:00,
2013-02-23 16:07:00,46.3,39.8,30.42,WNW,294,9.0,13.0,78,0.00,,,0.03,Wunderground v.1.15,2013-02-24 00:07:00,
2013-02-23 16:17:00,46.7,39.9,30.42,WNW,294,10.0,17.0,77,0.00,,,0.03,Wunderground v.1.15,2013-02-24 00:17:00,
2013-02-23 16:26:00,46.9,39.4,30.42,WNW,298,9.0,15.0,75,0.00,,,0.03,Wunderground v.1.15,2013-02-24 00:26:00,
2013-02-23 16:32:00,46.9,38.7,30.42,WNW,296,7.0,12.0,73,0.00,,,0.03,Wunderground v.1.15,2013-02-24 00:32:00,
2013-02-23 16:41:00,47.0,38.4,30.42,WNW,300,6.0,6.0,72,0.00,,,0.03,Wunderground v.1.15,2013-02-24 00:41:00,
2013-02-23 16:52:00,46.9,38.0,30.42,WNW,288,5.0,5.0,71,0.00,,,0.03,Wunderground v.1.15,2013-02-24 00:52:00,
2013-02-23 16:57:00,46.8,38.2,30.42,NW,312,5.0,7.0,72,0.00,,,0.03,Wunderground v.1.15,2013-02-24 00:57:00,
2013-02-23 17:02:00,46.7,38.1,30.42,WNW,287,5.0,5.0,72,0.00,,,0.03,Wunderground v.1.15,2013-02-24 01:02:00,
2013-02-23 17:07:00,46.4,38.2,30.42,NW,305,5.0,8.0,73,0.00,,,0.03,Wunderground v.1.15,2013-02-24 01:07:00,
2013-02-23 17:17:00,45.7,37.5,30.43,NNW,340,6.0,12.0,73,0.00,,,0.03,Wunderground v.1.15,2013-02-24 01:17:00,
2013-02-23 17:26:00,45.2,37.4,30.43,WNW,298,4.0,9.0,74,0.00,,,0.03,Wunderground v.1.15,2013-02-24 01:26:00,
2013-02-23 17:36:00,45.0,37.6,30.43,NW,305,4.0,7.0,75,0.00,,,0.03,Wunderground v.1.15,2013-02-24 01:36:00,
2013-02-23 17:42:00,44.9,37.5,30.43,WNW,286,4.0,9.0,75,0.00,,,0.03,Wunderground v.1.15,2013-02-24 01:42:00,
2013-02-23 17:52:00,44.8,37.4,30.43,NW,309,4.0,4.0,75,0.00,,,0.03,Wunderground v.1.15,2013-02-24 01:52:00,
2013-02-23 18:01:00,44.7,37.3,30.43,West,281,3.0,11.0,75,0.00,,,0.03,Wunderground v.1.15,2013-02-24 02:01:00,
2013-02-23 18:07:00,44.8,37.4,30.44,WNW,294,5.0,13.0,75,0.00,,,0.03,Wunderground v.1.15,2013-02-24 02:07:00,
2013-02-23 18:16:00,44.8,37.4,30.44,WNW,303,4.0,11.0,75,0.00,,,0.03,Wunderground v.1.15,2013-02-24 02:16:00,
2013-02-23 18:27:00,44.7,36.9,30.44,WNW,302,4.0,8.0,74,0.00,,,0.03,Wunderground v.1.15,2013-02-24 02:27:00,
2013-02-23 18:37:00,44.7,36.9,30.45,WNW,286,3.0,4.0,74,0.00,,,0.03,Wunderground v.1.15,2013-02-24 02:37:00,
2013-02-23 18:46:00,44.9,37.5,30.45,WNW,294,4.0,9.0,75,0.00,,,0.03,Wunderground v.1.15,2013-02-24 02:46:00,
2013-02-23 18:52:00,44.8,36.7,30.44,NNW,333,3.0,6.0,73,0.00,,,0.03,Wunderground v.1.15,2013-02-24 02:52:00,
2013-02-23 19:02:00,44.7,35.9,30.45,NW,317,2.0,2.0,71,0.00,,,0.03,Wunderground v.1.15,2013-02-24 03:02:00,
2013-02-23 19:11:00,43.9,36.5,30.45,NW,317,0.0,2.0,75,0.00,,,0.03,Wunderground v.1.15,2013-02-24 03:11:00,
2013-02-23 19:17:00,43.3,36.2,30.45,NW,317,1.0,2.0,76,0.00,,,0.03,Wunderground v.1.15,2013-02-24 03:17:00,
2013-02-23 19:27:00,42.5,36.1,30.45,NNW,330,1.0,2.0,78,0.00,,,0.03,Wunderground v.1.15,2013-02-24 03:27:00,
2013-02-23 19:36:00,42.1,36.1,30.45,North,355,1.0,2.0,79,0.00,,,0.03,Wunderground v.1.15,2013-02-24 03:36:00,
2013-02-23 19:46:00,41.7,36.3,30.45,North,355,1.0,3.0,81,0.00,,,0.03,Wunderground v.1.15,2013-02-24 03:46:00,
2013-02-23 19:51:00,41.6,36.2,30.45,North,355,2.0,2.0,81,0.00,,,0.03,Wunderground v.1.15,2013-02-24 03:51:00,
2013-02-23 19:57:00,41.4,36.0,30.45,North,355,1.0,2.0,81,0.00,,,0.03,Wunderground v.1.15,2013-02-24 03:57:00,
2013-02-23 20:06:00,41.2,36.1,30.45,North,355,0.0,2.0,82,0.00,,,0.03,Wunderground v.1.15,2013-02-24 04:06:00,
2013-02-23 20:16:00,41.3,36.8,30.45,North,355,1.0,3.0,84,0.00,,,0.03,Wunderground v.1.15,2013-02-24 04:16:00,
2013-02-23 20:22:00,41.9,37.1,30.45,North,355,1.0,5.0,83,0.00,,,0.03,Wunderground v.1.15,2013-02-24 04:22:00,
2013-02-23 20:31:00,41.5,36.4,30.46,NNE,24,2.0,5.0,82,0.00,,,0.03,Wunderground v.1.15,2013-02-24 04:31:00,
2013-02-23 20:42:00,40.5,36.0,30.46,NNE,24,2.0,2.0,84,0.00,,,0.03,Wunderground v.1.15,2013-02-24 04:42:00,
2013-02-23 20:51:00,39.7,35.6,30.46,NE,36,2.0,4.0,85,0.00,,,0.03,Wunderground v.1.15,2013-02-24 04:51:00,
2013-02-23 21:02:00,39.0,35.5,30.46,NE,40,2.0,4.0,87,0.00,,,0.03,Wunderground v.1.15,2013-02-24 05:02:00,
2013-02-23 21:07:00,38.8,35.3,30.45,NE,46,3.0,4.0,87,0.00,,,0.03,Wunderground v.1.15,2013-02-24 05:07:00,
2013-02-23 21:11:00,38.7,35.5,30.45,NE,48,2.0,5.0,88,0.00,,,0.03,Wunderground v.1.15,2013-02-24 05:11:00,
2013-02-23 21:16:00,38.7,35.5,30.46,NE,48,2.0,5.0,88,0.00,,,0.03,Wunderground v.1.15,2013-02-24 05:16:00,
2013-02-23 21:22:00,38.9,35.9,30.45,NE,51,3.0,4.0,89,0.00,,,0.03,Wunderground v.1.15,2013-02-24 05:22:00,
2013-02-23 21:27:00,38.9,35.9,30.45,NE,56,3.0,5.0,89,0.00,,,0.03,Wunderground v.1.15,2013-02-24 05:27:00,
2013-02-23 21:37:00,39.2,36.2,30.46,NE,56,3.0,4.0,89,0.00,,,0.03,Wunderground v.1.15,2013-02-24 05:37:00,
2013-02-23 21:46:00,39.4,36.4,30.46,NNE,14,2.0,3.0,89,0.00,,,0.03,Wunderground v.1.15,2013-02-24 05:46:00,
2013-02-23 21:57:00,39.8,36.8,30.46,NNE,26,2.0,6.0,89,0.00,,,0.04,Wunderground v.1.15,2013-02-24 05:57:00,
2013-02-23 22:06:00,40.0,37.3,30.47,NNE,26,2.0,3.0,90,0.00,,,0.04,Wunderground v.1.15,2013-02-24 06:06:00,
2013-02-23 22:17:00,40.2,37.5,30.47,NE,34,1.0,4.0,90,0.00,,,0.04,Wunderground v.1.15,2013-02-24 06:17:00,
2013-02-23 22:27:00,40.2,37.8,30.46,ENE,63,3.0,5.0,91,0.00,,,0.05,Wunderground v.1.15,2013-02-24 06:27:00,
2013-02-23 22:36:00,40.2,37.8,30.46,East,87,5.0,7.0,91,0.00,,,0.05,Wunderground v.1.15,2013-02-24 06:36:00,
2013-02-23 22:47:00,40.2,37.8,30.47,East,86,4.0,6.0,91,0.00,,,0.06,Wunderground v.1.15,2013-02-24 06:47:00,
2013-02-23 22:57:00,40.2,37.8,30.47,East,87,4.0,5.0,91,0.00,,,0.06,Wunderground v.1.15,2013-02-24 06:57:00,
2013-02-23 23:06:00,40.2,38.1,30.47,East,87,3.0,5.0,92,0.00,,,0.06,Wunderground v.1.15,2013-02-24 07:06:00,
2013-02-23 23:12:00,40.2,38.1,30.47,East,86,3.0,5.0,92,0.00,,,0.06,Wunderground v.1.15,2013-02-24 07:12:00,
2013-02-23 23:21:00,40.0,37.9,30.46,East,85,3.0,6.0,92,0.00,,,0.06,Wunderground v.1.15,2013-02-24 07:21:00,
2013-02-23 23:32:00,39.9,37.8,30.46,East,86,4.0,5.0,92,0.00,,,0.06,Wunderground v.1.15,2013-02-24 07:32:00,
2013-02-23 23:37:00,39.8,37.7,30.46,East,86,4.0,5.0,92,0.00,,,0.06,Wunderground v.1.15,2013-02-24 07:37:00,
2013-02-23 23:47:00,39.8,37.9,30.46,East,86,4.0,5.0,93,0.00,,,0.06,Wunderground v.1.15,2013-02-24 07:47:00,
2013-02-23 23:56:00,39.7,37.8,30.46,East,90,4.0,7.0,93,0.00,,,0.06,Wunderground v.1.15,2013-02-24 07:56:00,